sensor_id;sensor_type;location;lat;lon;timestamp;P1;durP1;ratioP1;P2;durP2;ratioP2
68234;SDS011;55052;52.056;5.296;2022-09-01T00:01:48;3.80;;;1.50;;
68234;SDS011;55052;52.056;5.296;2022-09-01T00:04:18;5.40;;;1.40;;
68234;SDS011;55052;52.056;5.296;2022-09-01T00:06:47;6.35;;;1.40;;
68234;SDS011;55052;52.056;5.296;2022-09-01T00:09:16;3.13;;;1.60;;
68234;SDS011;55052;52.056;5.296;2022-09-01T00:11:45;3.23;;;1.60;;
68234;SDS011;55052;52.056;5.296;2022-09-01T00:14:16;2.92;;;1.33;;
68234;SDS011;55052;52.056;5.296;2022-09-01T00:17:01;3.33;;;1.50;;
68234;SDS011;55052;52.056;5.296;2022-09-01T00:19:29;2.67;;;1.50;;
68234;SDS011;55052;52.056;5.296;2022-09-01T00:21:58;3.50;;;1.35;;
68234;SDS011;55052;52.056;5.296;2022-09-01T00:24:26;3.75;;;1.30;;
68234;SDS011;55052;52.056;5.296;2022-09-01T00:26:54;5.32;;;2.20;;
68234;SDS011;55052;52.056;5.296;2022-09-01T00:29:23;5.93;;;1.73;;
68234;SDS011;55052;52.056;5.296;2022-09-01T00:31:50;5.10;;;1.52;;
68234;SDS011;55052;52.056;5.296;2022-09-01T00:34:18;4.40;;;1.70;;
68234;SDS011;55052;52.056;5.296;2022-09-01T00:36:45;3.90;;;1.50;;
68234;SDS011;55052;52.056;5.296;2022-09-01T00:39:13;4.85;;;1.70;;
68234;SDS011;55052;52.056;5.296;2022-09-01T00:41:41;3.67;;;1.48;;
68234;SDS011;55052;52.056;5.296;2022-09-01T00:44:11;5.05;;;1.70;;
68234;SDS011;55052;52.056;5.296;2022-09-01T00:46:42;4.20;;;1.63;;
68234;SDS011;55052;52.056;5.296;2022-09-01T00:52:13;3.50;;;1.60;;
68234;SDS011;55052;52.056;5.296;2022-09-01T00:54:45;5.97;;;1.65;;
68234;SDS011;55052;52.056;5.296;2022-09-01T00:57:15;5.53;;;1.60;;
68234;SDS011;55052;52.056;5.296;2022-09-01T00:59:46;4.00;;;1.50;;
68234;SDS011;55052;52.056;5.296;2022-09-01T01:02:18;5.18;;;1.70;;
68234;SDS011;55052;52.056;5.296;2022-09-01T01:04:45;5.95;;;1.80;;
68234;SDS011;55052;52.056;5.296;2022-09-01T01:07:12;4.78;;;1.70;;
68234;SDS011;55052;52.056;5.296;2022-09-01T01:09:41;3.00;;;1.55;;
68234;SDS011;55052;52.056;5.296;2022-09-01T01:12:10;3.83;;;1.85;;
68234;SDS011;55052;52.056;5.296;2022-09-01T01:14:38;7.03;;;1.80;;
68234;SDS011;55052;52.056;5.296;2022-09-01T01:17:10;2.90;;;1.58;;
68234;SDS011;55052;52.056;5.296;2022-09-01T01:19:41;5.78;;;1.98;;
68234;SDS011;55052;52.056;5.296;2022-09-01T01:25:23;6.53;;;2.03;;
68234;SDS011;55052;52.056;5.296;2022-09-01T01:27:50;3.60;;;1.65;;
68234;SDS011;55052;52.056;5.296;2022-09-01T01:30:18;3.40;;;1.80;;
68234;SDS011;55052;52.056;5.296;2022-09-01T01:32:45;5.40;;;1.65;;
68234;SDS011;55052;52.056;5.296;2022-09-01T01:35:14;5.55;;;1.90;;
68234;SDS011;55052;52.056;5.296;2022-09-01T01:37:43;3.83;;;1.80;;
68234;SDS011;55052;52.056;5.296;2022-09-01T01:40:13;4.93;;;1.80;;
68234;SDS011;55052;52.056;5.296;2022-09-01T01:42:42;5.67;;;1.90;;
68234;SDS011;55052;52.056;5.296;2022-09-01T01:45:12;5.13;;;1.98;;
68234;SDS011;55052;52.056;5.296;2022-09-01T01:47:43;4.05;;;1.75;;
68234;SDS011;55052;52.056;5.296;2022-09-01T01:50:25;3.53;;;1.77;;
68234;SDS011;55052;52.056;5.296;2022-09-01T01:53:01;4.13;;;1.98;;
68234;SDS011;55052;52.056;5.296;2022-09-01T01:55:36;4.82;;;1.92;;
68234;SDS011;55052;52.056;5.296;2022-09-01T01:58:04;6.18;;;1.98;;
68234;SDS011;55052;52.056;5.296;2022-09-01T02:00:33;3.63;;;2.05;;
68234;SDS011;55052;52.056;5.296;2022-09-01T02:03:00;3.95;;;2.08;;
68234;SDS011;55052;52.056;5.296;2022-09-01T02:05:29;6.15;;;2.00;;
68234;SDS011;55052;52.056;5.296;2022-09-01T02:07:59;3.97;;;2.00;;
68234;SDS011;55052;52.056;5.296;2022-09-01T02:10:31;4.75;;;1.75;;
68234;SDS011;55052;52.056;5.296;2022-09-01T02:13:02;4.18;;;1.88;;
68234;SDS011;55052;52.056;5.296;2022-09-01T02:15:33;4.10;;;1.90;;
68234;SDS011;55052;52.056;5.296;2022-09-01T02:18:10;6.25;;;1.90;;
68234;SDS011;55052;52.056;5.296;2022-09-01T02:20:39;5.40;;;2.13;;
68234;SDS011;55052;52.056;5.296;2022-09-01T02:23:07;3.90;;;1.90;;
68234;SDS011;55052;52.056;5.296;2022-09-01T02:25:37;3.90;;;1.90;;
68234;SDS011;55052;52.056;5.296;2022-09-01T02:28:30;3.15;;;1.80;;
68234;SDS011;55052;52.056;5.296;2022-09-01T02:30:58;3.80;;;1.95;;
68234;SDS011;55052;52.056;5.296;2022-09-01T02:33:25;5.05;;;2.35;;
68234;SDS011;55052;52.056;5.296;2022-09-01T02:35:55;4.97;;;2.00;;
68234;SDS011;55052;52.056;5.296;2022-09-01T02:38:24;4.05;;;1.90;;
68234;SDS011;55052;52.056;5.296;2022-09-01T02:40:54;5.50;;;2.15;;
68234;SDS011;55052;52.056;5.296;2022-09-01T02:43:24;5.53;;;2.00;;
68234;SDS011;55052;52.056;5.296;2022-09-01T02:45:54;7.22;;;2.38;;
68234;SDS011;55052;52.056;5.296;2022-09-01T02:48:27;5.75;;;2.45;;
68234;SDS011;55052;52.056;5.296;2022-09-01T02:50:59;5.25;;;2.08;;
68234;SDS011;55052;52.056;5.296;2022-09-01T02:53:30;3.67;;;2.00;;
68234;SDS011;55052;52.056;5.296;2022-09-01T02:56:00;4.72;;;1.95;;
68234;SDS011;55052;52.056;5.296;2022-09-01T02:58:29;7.93;;;2.13;;
68234;SDS011;55052;52.056;5.296;2022-09-01T03:00:59;5.32;;;2.03;;
68234;SDS011;55052;52.056;5.296;2022-09-01T03:03:27;5.40;;;2.05;;
68234;SDS011;55052;52.056;5.296;2022-09-01T03:05:54;7.60;;;2.20;;
68234;SDS011;55052;52.056;5.296;2022-09-01T03:08:22;6.82;;;2.00;;
68234;SDS011;55052;52.056;5.296;2022-09-01T03:10:50;6.90;;;2.22;;
68234;SDS011;55052;52.056;5.296;2022-09-01T03:13:20;6.00;;;2.45;;
68234;SDS011;55052;52.056;5.296;2022-09-01T03:15:49;3.85;;;2.00;;
68234;SDS011;55052;52.056;5.296;2022-09-01T03:18:16;4.55;;;2.00;;
68234;SDS011;55052;52.056;5.296;2022-09-01T03:20:46;3.58;;;2.03;;
68234;SDS011;55052;52.056;5.296;2022-09-01T03:23:16;4.50;;;2.10;;
68234;SDS011;55052;52.056;5.296;2022-09-01T03:25:45;6.80;;;2.28;;
68234;SDS011;55052;52.056;5.296;2022-09-01T03:28:13;6.35;;;2.60;;
68234;SDS011;55052;52.056;5.296;2022-09-01T03:30:48;4.18;;;2.25;;
68234;SDS011;55052;52.056;5.296;2022-09-01T03:33:17;9.02;;;2.40;;
68234;SDS011;55052;52.056;5.296;2022-09-01T03:35:46;5.82;;;2.38;;
68234;SDS011;55052;52.056;5.296;2022-09-01T03:38:14;5.10;;;2.10;;
68234;SDS011;55052;52.056;5.296;2022-09-01T03:40:50;5.88;;;2.35;;
68234;SDS011;55052;52.056;5.296;2022-09-01T03:43:28;4.32;;;2.00;;
68234;SDS011;55052;52.056;5.296;2022-09-01T03:46:01;5.18;;;2.40;;
68234;SDS011;55052;52.056;5.296;2022-09-01T03:48:28;5.05;;;2.28;;
68234;SDS011;55052;52.056;5.296;2022-09-01T03:50:57;4.53;;;2.40;;
68234;SDS011;55052;52.056;5.296;2022-09-01T03:53:29;4.65;;;2.08;;
68234;SDS011;55052;52.056;5.296;2022-09-01T03:55:58;4.07;;;2.30;;
68234;SDS011;55052;52.056;5.296;2022-09-01T03:58:25;3.80;;;2.03;;
68234;SDS011;55052;52.056;5.296;2022-09-01T04:00:54;4.95;;;2.53;;
68234;SDS011;55052;52.056;5.296;2022-09-01T04:03:23;5.22;;;2.25;;
68234;SDS011;55052;52.056;5.296;2022-09-01T04:05:57;5.85;;;2.30;;
68234;SDS011;55052;52.056;5.296;2022-09-01T04:08:25;4.40;;;2.28;;
68234;SDS011;55052;52.056;5.296;2022-09-01T04:11:03;5.10;;;2.42;;
68234;SDS011;55052;52.056;5.296;2022-09-01T04:13:38;4.95;;;2.20;;
68234;SDS011;55052;52.056;5.296;2022-09-01T04:16:14;5.57;;;2.30;;
68234;SDS011;55052;52.056;5.296;2022-09-01T04:19:15;5.45;;;2.65;;
68234;SDS011;55052;52.056;5.296;2022-09-01T04:21:52;6.45;;;2.65;;
68234;SDS011;55052;52.056;5.296;2022-09-01T04:24:25;5.22;;;2.20;;
68234;SDS011;55052;52.056;5.296;2022-09-01T04:26:54;5.97;;;2.42;;
68234;SDS011;55052;52.056;5.296;2022-09-01T04:29:24;5.40;;;2.55;;
68234;SDS011;55052;52.056;5.296;2022-09-01T04:31:55;6.38;;;2.40;;
68234;SDS011;55052;52.056;5.296;2022-09-01T04:34:27;5.35;;;2.40;;
68234;SDS011;55052;52.056;5.296;2022-09-01T04:39:50;5.53;;;2.50;;
68234;SDS011;55052;52.056;5.296;2022-09-01T04:42:22;4.70;;;2.50;;
68234;SDS011;55052;52.056;5.296;2022-09-01T04:44:51;4.28;;;2.20;;
68234;SDS011;55052;52.056;5.296;2022-09-01T04:47:35;8.70;;;2.63;;
68234;SDS011;55052;52.056;5.296;2022-09-01T04:50:07;4.88;;;2.20;;
68234;SDS011;55052;52.056;5.296;2022-09-01T04:52:40;3.90;;;2.40;;
68234;SDS011;55052;52.056;5.296;2022-09-01T04:55:09;8.20;;;2.90;;
68234;SDS011;55052;52.056;5.296;2022-09-01T04:57:45;5.13;;;2.40;;
68234;SDS011;55052;52.056;5.296;2022-09-01T05:00:15;3.80;;;2.35;;
68234;SDS011;55052;52.056;5.296;2022-09-01T05:05:19;8.77;;;2.25;;
68234;SDS011;55052;52.056;5.296;2022-09-01T05:07:47;6.03;;;2.65;;
68234;SDS011;55052;52.056;5.296;2022-09-01T05:10:21;5.20;;;2.53;;
68234;SDS011;55052;52.056;5.296;2022-09-01T05:12:54;4.63;;;2.33;;
68234;SDS011;55052;52.056;5.296;2022-09-01T05:15:22;4.10;;;2.45;;
68234;SDS011;55052;52.056;5.296;2022-09-01T05:17:49;5.35;;;2.58;;
68234;SDS011;55052;52.056;5.296;2022-09-01T05:20:17;4.75;;;2.55;;
68234;SDS011;55052;52.056;5.296;2022-09-01T05:22:45;6.30;;;2.42;;
68234;SDS011;55052;52.056;5.296;2022-09-01T05:25:12;5.88;;;2.60;;
68234;SDS011;55052;52.056;5.296;2022-09-01T05:27:40;8.75;;;2.58;;
68234;SDS011;55052;52.056;5.296;2022-09-01T05:30:08;5.32;;;2.55;;
68234;SDS011;55052;52.056;5.296;2022-09-01T05:32:35;5.40;;;2.40;;
68234;SDS011;55052;52.056;5.296;2022-09-01T05:35:05;6.57;;;2.70;;
68234;SDS011;55052;52.056;5.296;2022-09-01T05:37:36;4.55;;;2.35;;
68234;SDS011;55052;52.056;5.296;2022-09-01T05:40:06;5.23;;;2.67;;
68234;SDS011;55052;52.056;5.296;2022-09-01T05:42:37;5.15;;;2.33;;
68234;SDS011;55052;52.056;5.296;2022-09-01T05:45:04;4.60;;;2.50;;
68234;SDS011;55052;52.056;5.296;2022-09-01T05:47:32;5.03;;;2.53;;
68234;SDS011;55052;52.056;5.296;2022-09-01T05:50:02;6.32;;;2.53;;
68234;SDS011;55052;52.056;5.296;2022-09-01T05:52:31;6.20;;;2.50;;
68234;SDS011;55052;52.056;5.296;2022-09-01T05:54:59;4.60;;;1.98;;
68234;SDS011;55052;52.056;5.296;2022-09-01T05:57:26;4.10;;;2.25;;
68234;SDS011;55052;52.056;5.296;2022-09-01T06:00:03;4.07;;;2.30;;
68234;SDS011;55052;52.056;5.296;2022-09-01T06:02:37;6.63;;;2.30;;
68234;SDS011;55052;52.056;5.296;2022-09-01T06:05:06;7.22;;;2.67;;
68234;SDS011;55052;52.056;5.296;2022-09-01T06:07:33;5.90;;;2.40;;
68234;SDS011;55052;52.056;5.296;2022-09-01T06:10:03;4.33;;;2.13;;
68234;SDS011;55052;52.056;5.296;2022-09-01T06:12:30;5.88;;;2.40;;
68234;SDS011;55052;52.056;5.296;2022-09-01T06:14:58;7.10;;;2.67;;
68234;SDS011;55052;52.056;5.296;2022-09-01T06:17:26;7.13;;;2.20;;
68234;SDS011;55052;52.056;5.296;2022-09-01T06:19:56;5.32;;;2.00;;
68234;SDS011;55052;52.056;5.296;2022-09-01T06:22:24;5.05;;;2.22;;
68234;SDS011;55052;52.056;5.296;2022-09-01T06:24:53;7.00;;;2.45;;
68234;SDS011;55052;52.056;5.296;2022-09-01T06:27:27;4.28;;;2.00;;
68234;SDS011;55052;52.056;5.296;2022-09-01T06:29:54;4.97;;;2.17;;
68234;SDS011;55052;52.056;5.296;2022-09-01T06:32:23;7.38;;;2.28;;
68234;SDS011;55052;52.056;5.296;2022-09-01T06:34:51;3.78;;;2.28;;
68234;SDS011;55052;52.056;5.296;2022-09-01T06:37:18;6.43;;;2.30;;
68234;SDS011;55052;52.056;5.296;2022-09-01T06:39:48;9.30;;;2.53;;
68234;SDS011;55052;52.056;5.296;2022-09-01T06:42:15;4.05;;;2.40;;
68234;SDS011;55052;52.056;5.296;2022-09-01T06:44:44;4.25;;;2.67;;
68234;SDS011;55052;52.056;5.296;2022-09-01T06:47:11;6.65;;;2.55;;
68234;SDS011;55052;52.056;5.296;2022-09-01T06:49:38;5.15;;;2.45;;
68234;SDS011;55052;52.056;5.296;2022-09-01T06:52:06;5.05;;;2.50;;
68234;SDS011;55052;52.056;5.296;2022-09-01T06:54:33;5.97;;;2.30;;
68234;SDS011;55052;52.056;5.296;2022-09-01T06:57:02;5.93;;;2.35;;
68234;SDS011;55052;52.056;5.296;2022-09-01T06:59:49;4.60;;;2.42;;
68234;SDS011;55052;52.056;5.296;2022-09-01T07:02:18;6.00;;;2.50;;
68234;SDS011;55052;52.056;5.296;2022-09-01T07:05:06;4.45;;;2.50;;
68234;SDS011;55052;52.056;5.296;2022-09-01T07:07:33;4.13;;;2.00;;
68234;SDS011;55052;52.056;5.296;2022-09-01T07:10:20;8.57;;;2.10;;
68234;SDS011;55052;52.056;5.296;2022-09-01T07:12:49;5.03;;;2.00;;
68234;SDS011;55052;52.056;5.296;2022-09-01T07:15:42;5.80;;;2.30;;
68234;SDS011;55052;52.056;5.296;2022-09-01T07:18:29;6.32;;;2.30;;
68234;SDS011;55052;52.056;5.296;2022-09-01T07:20:57;5.78;;;2.05;;
68234;SDS011;55052;52.056;5.296;2022-09-01T07:23:45;3.55;;;1.80;;
68234;SDS011;55052;52.056;5.296;2022-09-01T07:26:33;5.85;;;2.10;;
68234;SDS011;55052;52.056;5.296;2022-09-01T07:29:01;4.35;;;1.90;;
68234;SDS011;55052;52.056;5.296;2022-09-01T07:31:36;4.15;;;1.70;;
68234;SDS011;55052;52.056;5.296;2022-09-01T07:34:26;4.72;;;2.05;;
68234;SDS011;55052;52.056;5.296;2022-09-01T07:37:13;4.68;;;1.80;;
68234;SDS011;55052;52.056;5.296;2022-09-01T07:40:01;6.25;;;2.00;;
68234;SDS011;55052;52.056;5.296;2022-09-01T07:42:52;5.85;;;1.90;;
68234;SDS011;55052;52.056;5.296;2022-09-01T07:45:40;4.53;;;1.70;;
68234;SDS011;55052;52.056;5.296;2022-09-01T07:48:24;5.70;;;2.10;;
68234;SDS011;55052;52.056;5.296;2022-09-01T07:51:12;5.05;;;1.83;;
68234;SDS011;55052;52.056;5.296;2022-09-01T07:54:03;3.17;;;1.48;;
68234;SDS011;55052;52.056;5.296;2022-09-01T07:56:30;6.30;;;1.50;;
68234;SDS011;55052;52.056;5.296;2022-09-01T07:59:04;3.53;;;1.40;;
68234;SDS011;55052;52.056;5.296;2022-09-01T08:01:32;5.13;;;1.85;;
68234;SDS011;55052;52.056;5.296;2022-09-01T08:03:59;4.28;;;1.60;;
68234;SDS011;55052;52.056;5.296;2022-09-01T08:06:27;3.97;;;1.60;;
68234;SDS011;55052;52.056;5.296;2022-09-01T08:09:04;3.75;;;1.30;;
68234;SDS011;55052;52.056;5.296;2022-09-01T08:11:50;3.42;;;1.50;;
68234;SDS011;55052;52.056;5.296;2022-09-01T08:14:27;6.22;;;1.80;;
68234;SDS011;55052;52.056;5.296;2022-09-01T08:16:59;7.95;;;1.60;;
68234;SDS011;55052;52.056;5.296;2022-09-01T08:19:42;4.50;;;1.50;;
68234;SDS011;55052;52.056;5.296;2022-09-01T08:22:09;4.75;;;1.50;;
68234;SDS011;55052;52.056;5.296;2022-09-01T08:24:36;5.50;;;1.40;;
68234;SDS011;55052;52.056;5.296;2022-09-01T08:27:02;6.05;;;1.45;;
68234;SDS011;55052;52.056;5.296;2022-09-01T08:29:29;5.05;;;1.58;;
68234;SDS011;55052;52.056;5.296;2022-09-01T08:31:57;4.25;;;1.70;;
68234;SDS011;55052;52.056;5.296;2022-09-01T08:34:25;3.63;;;1.50;;
68234;SDS011;55052;52.056;5.296;2022-09-01T08:36:52;3.15;;;1.15;;
68234;SDS011;55052;52.056;5.296;2022-09-01T08:39:19;3.53;;;1.20;;
68234;SDS011;55052;52.056;5.296;2022-09-01T08:47:03;3.53;;;1.20;;
68234;SDS011;55052;52.056;5.296;2022-09-01T08:49:38;3.65;;;1.20;;
68234;SDS011;55052;52.056;5.296;2022-09-01T08:57:49;4.32;;;1.40;;
68234;SDS011;55052;52.056;5.296;2022-09-01T09:00:25;2.63;;;1.38;;
68234;SDS011;55052;52.056;5.296;2022-09-01T09:08:43;4.18;;;1.30;;
68234;SDS011;55052;52.056;5.296;2022-09-01T09:17:13;4.00;;;1.42;;
68234;SDS011;55052;52.056;5.296;2022-09-01T09:19:44;4.38;;;1.30;;
68234;SDS011;55052;52.056;5.296;2022-09-01T09:22:13;3.67;;;1.50;;
68234;SDS011;55052;52.056;5.296;2022-09-01T09:27:24;7.25;;;1.73;;
68234;SDS011;55052;52.056;5.296;2022-09-01T09:29:57;7.43;;;1.35;;
68234;SDS011;55052;52.056;5.296;2022-09-01T09:32:43;5.57;;;1.35;;
68234;SDS011;55052;52.056;5.296;2022-09-01T09:35:39;2.78;;;1.30;;
68234;SDS011;55052;52.056;5.296;2022-09-01T09:43:57;8.18;;;1.70;;
68234;SDS011;55052;52.056;5.296;2022-09-01T09:51:32;4.93;;;1.40;;
68234;SDS011;55052;52.056;5.296;2022-09-01T10:05:06;2.55;;;1.10;;
68234;SDS011;55052;52.056;5.296;2022-09-01T10:08:02;1.50;;;1.10;;
68234;SDS011;55052;52.056;5.296;2022-09-01T10:13:10;2.53;;;1.00;;
68234;SDS011;55052;52.056;5.296;2022-09-01T10:15:46;5.03;;;1.00;;
68234;SDS011;55052;52.056;5.296;2022-09-01T10:18:22;4.78;;;1.25;;
68234;SDS011;55052;52.056;5.296;2022-09-01T10:20:59;2.00;;;1.05;;
68234;SDS011;55052;52.056;5.296;2022-09-01T10:23:28;2.50;;;1.10;;
68234;SDS011;55052;52.056;5.296;2022-09-01T10:25:58;2.33;;;1.35;;
68234;SDS011;55052;52.056;5.296;2022-09-01T10:28:53;1.77;;;1.00;;
68234;SDS011;55052;52.056;5.296;2022-09-01T10:31:25;4.95;;;1.27;;
68234;SDS011;55052;52.056;5.296;2022-09-01T10:33:57;3.92;;;1.08;;
68234;SDS011;55052;52.056;5.296;2022-09-01T10:38:55;6.80;;;1.17;;
68234;SDS011;55052;52.056;5.296;2022-09-01T10:44:09;3.50;;;1.10;;
68234;SDS011;55052;52.056;5.296;2022-09-01T10:46:44;2.78;;;1.15;;
68234;SDS011;55052;52.056;5.296;2022-09-01T10:51:55;3.00;;;1.30;;
68234;SDS011;55052;52.056;5.296;2022-09-01T10:54:51;7.47;;;1.50;;
68234;SDS011;55052;52.056;5.296;2022-09-01T10:57:39;2.78;;;1.20;;
68234;SDS011;55052;52.056;5.296;2022-09-01T11:08:45;4.35;;;1.30;;
68234;SDS011;55052;52.056;5.296;2022-09-01T11:11:29;3.38;;;1.25;;
68234;SDS011;55052;52.056;5.296;2022-09-01T11:13:59;3.20;;;1.30;;
68234;SDS011;55052;52.056;5.296;2022-09-01T11:16:27;2.25;;;1.15;;
68234;SDS011;55052;52.056;5.296;2022-09-01T11:25:04;1.93;;;1.00;;
68234;SDS011;55052;52.056;5.296;2022-09-01T11:30:20;1.40;;;0.90;;
68234;SDS011;55052;52.056;5.296;2022-09-01T11:32:50;2.25;;;1.10;;
68234;SDS011;55052;52.056;5.296;2022-09-01T11:35:24;3.65;;;1.20;;
68234;SDS011;55052;52.056;5.296;2022-09-01T11:37:56;3.95;;;1.20;;
68234;SDS011;55052;52.056;5.296;2022-09-01T11:40:29;1.90;;;1.10;;
68234;SDS011;55052;52.056;5.296;2022-09-01T11:42:59;2.47;;;1.35;;
68234;SDS011;55052;52.056;5.296;2022-09-01T11:45:43;1.80;;;1.10;;
68234;SDS011;55052;52.056;5.296;2022-09-01T11:48:21;4.63;;;1.40;;
68234;SDS011;55052;52.056;5.296;2022-09-01T11:50:55;5.20;;;1.10;;
68234;SDS011;55052;52.056;5.296;2022-09-01T11:53:24;3.95;;;1.10;;
68234;SDS011;55052;52.056;5.296;2022-09-01T11:55:53;3.55;;;1.10;;
68234;SDS011;55052;52.056;5.296;2022-09-01T12:00:56;2.60;;;1.10;;
68234;SDS011;55052;52.056;5.296;2022-09-01T12:03:36;3.90;;;1.00;;
68234;SDS011;55052;52.056;5.296;2022-09-01T12:06:04;1.88;;;0.98;;
68234;SDS011;55052;52.056;5.296;2022-09-01T12:08:38;1.63;;;1.10;;
68234;SDS011;55052;52.056;5.296;2022-09-01T12:11:27;3.35;;;1.10;;
68234;SDS011;55052;52.056;5.296;2022-09-01T12:14:06;1.90;;;1.00;;
68234;SDS011;55052;52.056;5.296;2022-09-01T12:16:38;2.75;;;1.10;;
68234;SDS011;55052;52.056;5.296;2022-09-01T12:19:07;4.32;;;1.20;;
68234;SDS011;55052;52.056;5.296;2022-09-01T12:21:55;3.50;;;1.00;;
68234;SDS011;55052;52.056;5.296;2022-09-01T12:24:35;2.22;;;1.00;;
68234;SDS011;55052;52.056;5.296;2022-09-01T12:27:02;5.10;;;1.20;;
68234;SDS011;55052;52.056;5.296;2022-09-01T12:29:30;1.67;;;1.05;;
68234;SDS011;55052;52.056;5.296;2022-09-01T12:31:58;3.83;;;1.05;;
68234;SDS011;55052;52.056;5.296;2022-09-01T12:39:36;3.38;;;1.10;;
68234;SDS011;55052;52.056;5.296;2022-09-01T12:44:48;2.38;;;1.20;;
68234;SDS011;55052;52.056;5.296;2022-09-01T12:55:15;2.60;;;1.10;;
68234;SDS011;55052;52.056;5.296;2022-09-01T12:58:04;2.30;;;1.00;;
68234;SDS011;55052;52.056;5.296;2022-09-01T13:00:33;3.05;;;1.00;;
68234;SDS011;55052;52.056;5.296;2022-09-01T13:08:11;2.97;;;1.10;;
68234;SDS011;55052;52.056;5.296;2022-09-01T13:10:47;4.57;;;1.10;;
68234;SDS011;55052;52.056;5.296;2022-09-01T13:13:16;4.72;;;1.30;;
68234;SDS011;55052;52.056;5.296;2022-09-01T13:15:45;2.40;;;1.05;;
68234;SDS011;55052;52.056;5.296;2022-09-01T13:18:14;2.88;;;1.17;;
68234;SDS011;55052;52.056;5.296;2022-09-01T13:20:42;2.88;;;1.10;;
68234;SDS011;55052;52.056;5.296;2022-09-01T13:23:09;5.82;;;1.20;;
68234;SDS011;55052;52.056;5.296;2022-09-01T13:25:38;2.17;;;1.20;;
68234;SDS011;55052;52.056;5.296;2022-09-01T13:28:05;5.15;;;1.20;;
68234;SDS011;55052;52.056;5.296;2022-09-01T13:30:33;4.05;;;1.23;;
68234;SDS011;55052;52.056;5.296;2022-09-01T13:33:00;3.15;;;1.10;;
68234;SDS011;55052;52.056;5.296;2022-09-01T13:35:47;4.35;;;1.20;;
68234;SDS011;55052;52.056;5.296;2022-09-01T13:38:15;2.25;;;0.98;;
68234;SDS011;55052;52.056;5.296;2022-09-01T13:40:43;5.20;;;1.38;;
68234;SDS011;55052;52.056;5.296;2022-09-01T13:43:12;2.33;;;1.20;;
68234;SDS011;55052;52.056;5.296;2022-09-01T13:45:40;3.95;;;1.20;;
68234;SDS011;55052;52.056;5.296;2022-09-01T13:48:10;2.70;;;1.10;;
68234;SDS011;55052;52.056;5.296;2022-09-01T13:50:45;1.92;;;1.00;;
68234;SDS011;55052;52.056;5.296;2022-09-01T13:53:37;2.35;;;1.10;;
68234;SDS011;55052;52.056;5.296;2022-09-01T13:56:04;3.40;;;1.30;;
68234;SDS011;55052;52.056;5.296;2022-09-01T13:58:31;3.38;;;1.17;;
68234;SDS011;55052;52.056;5.296;2022-09-01T14:00:58;4.88;;;1.40;;
68234;SDS011;55052;52.056;5.296;2022-09-01T14:03:25;3.38;;;1.10;;
68234;SDS011;55052;52.056;5.296;2022-09-01T14:05:52;3.42;;;1.20;;
68234;SDS011;55052;52.056;5.296;2022-09-01T14:08:19;5.03;;;1.30;;
68234;SDS011;55052;52.056;5.296;2022-09-01T14:10:48;2.67;;;1.10;;
68234;SDS011;55052;52.056;5.296;2022-09-01T14:13:18;3.63;;;1.20;;
68234;SDS011;55052;52.056;5.296;2022-09-01T14:15:46;2.30;;;1.10;;
68234;SDS011;55052;52.056;5.296;2022-09-01T14:18:14;2.78;;;1.13;;
68234;SDS011;55052;52.056;5.296;2022-09-01T14:20:43;3.60;;;1.35;;
68234;SDS011;55052;52.056;5.296;2022-09-01T14:23:12;1.90;;;1.10;;
68234;SDS011;55052;52.056;5.296;2022-09-01T14:25:41;4.97;;;1.27;;
68234;SDS011;55052;52.056;5.296;2022-09-01T14:28:10;2.05;;;1.00;;
68234;SDS011;55052;52.056;5.296;2022-09-01T14:30:38;1.92;;;1.00;;
68234;SDS011;55052;52.056;5.296;2022-09-01T14:33:08;5.07;;;1.05;;
68234;SDS011;55052;52.056;5.296;2022-09-01T14:35:38;2.95;;;1.05;;
68234;SDS011;55052;52.056;5.296;2022-09-01T14:38:08;3.38;;;1.02;;
68234;SDS011;55052;52.056;5.296;2022-09-01T14:40:37;2.42;;;1.10;;
68234;SDS011;55052;52.056;5.296;2022-09-01T14:43:05;5.50;;;1.50;;
68234;SDS011;55052;52.056;5.296;2022-09-01T14:45:34;4.63;;;1.13;;
68234;SDS011;55052;52.056;5.296;2022-09-01T14:48:04;4.03;;;1.17;;
68234;SDS011;55052;52.056;5.296;2022-09-01T14:50:31;2.17;;;1.10;;
68234;SDS011;55052;52.056;5.296;2022-09-01T14:52:59;4.00;;;1.30;;
68234;SDS011;55052;52.056;5.296;2022-09-01T14:55:28;4.75;;;1.13;;
68234;SDS011;55052;52.056;5.296;2022-09-01T14:57:56;3.65;;;1.10;;
68234;SDS011;55052;52.056;5.296;2022-09-01T15:00:24;2.50;;;1.15;;
68234;SDS011;55052;52.056;5.296;2022-09-01T15:02:52;2.38;;;1.00;;
68234;SDS011;55052;52.056;5.296;2022-09-01T15:05:20;2.40;;;1.10;;
68234;SDS011;55052;52.056;5.296;2022-09-01T15:07:47;2.83;;;1.30;;
68234;SDS011;55052;52.056;5.296;2022-09-01T15:10:15;3.78;;;1.25;;
68234;SDS011;55052;52.056;5.296;2022-09-01T15:12:51;4.18;;;1.00;;
68234;SDS011;55052;52.056;5.296;2022-09-01T15:15:19;4.22;;;1.23;;
68234;SDS011;55052;52.056;5.296;2022-09-01T15:17:46;2.85;;;1.05;;
68234;SDS011;55052;52.056;5.296;2022-09-01T15:20:13;2.25;;;1.17;;
68234;SDS011;55052;52.056;5.296;2022-09-01T15:25:29;4.95;;;1.30;;
68234;SDS011;55052;52.056;5.296;2022-09-01T15:27:56;6.10;;;1.40;;
68234;SDS011;55052;52.056;5.296;2022-09-01T15:30:23;3.42;;;1.00;;
68234;SDS011;55052;52.056;5.296;2022-09-01T15:32:51;3.83;;;1.13;;
68234;SDS011;55052;52.056;5.296;2022-09-01T15:35:19;3.30;;;1.10;;
68234;SDS011;55052;52.056;5.296;2022-09-01T15:37:48;3.08;;;1.30;;
68234;SDS011;55052;52.056;5.296;2022-09-01T15:40:16;2.72;;;1.20;;
68234;SDS011;55052;52.056;5.296;2022-09-01T15:42:44;3.95;;;1.30;;
68234;SDS011;55052;52.056;5.296;2022-09-01T15:45:13;4.93;;;1.20;;
68234;SDS011;55052;52.056;5.296;2022-09-01T15:47:42;3.38;;;1.20;;
68234;SDS011;55052;52.056;5.296;2022-09-01T15:50:11;2.80;;;1.30;;
68234;SDS011;55052;52.056;5.296;2022-09-01T15:55:28;3.35;;;1.25;;
68234;SDS011;55052;52.056;5.296;2022-09-01T15:58:15;2.50;;;1.38;;
68234;SDS011;55052;52.056;5.296;2022-09-01T16:00:43;2.03;;;1.20;;
68234;SDS011;55052;52.056;5.296;2022-09-01T16:03:11;2.60;;;1.15;;
68234;SDS011;55052;52.056;5.296;2022-09-01T16:05:38;5.13;;;1.17;;
68234;SDS011;55052;52.056;5.296;2022-09-01T16:08:06;3.45;;;1.30;;
68234;SDS011;55052;52.056;5.296;2022-09-01T16:10:35;4.22;;;1.30;;
68234;SDS011;55052;52.056;5.296;2022-09-01T16:15:32;4.32;;;1.10;;
68234;SDS011;55052;52.056;5.296;2022-09-01T16:18:10;1.88;;;1.20;;
68234;SDS011;55052;52.056;5.296;2022-09-01T16:23:47;2.72;;;1.17;;
68234;SDS011;55052;52.056;5.296;2022-09-01T16:26:18;3.40;;;1.20;;
68234;SDS011;55052;52.056;5.296;2022-09-01T16:28:46;4.05;;;1.27;;
68234;SDS011;55052;52.056;5.296;2022-09-01T16:31:16;6.30;;;1.40;;
68234;SDS011;55052;52.056;5.296;2022-09-01T16:33:49;2.80;;;1.25;;
68234;SDS011;55052;52.056;5.296;2022-09-01T16:39:06;4.30;;;1.10;;
68234;SDS011;55052;52.056;5.296;2022-09-01T16:47:10;1.75;;;1.10;;
68234;SDS011;55052;52.056;5.296;2022-09-01T16:52:42;3.97;;;1.30;;
68234;SDS011;55052;52.056;5.296;2022-09-01T16:58:02;3.53;;;1.27;;
68234;SDS011;55052;52.056;5.296;2022-09-01T17:00:54;2.85;;;1.20;;
68234;SDS011;55052;52.056;5.296;2022-09-01T17:03:34;1.77;;;1.10;;
68234;SDS011;55052;52.056;5.296;2022-09-01T17:06:19;2.05;;;1.20;;
68234;SDS011;55052;52.056;5.296;2022-09-01T17:09:06;2.60;;;1.27;;
68234;SDS011;55052;52.056;5.296;2022-09-01T17:12:07;3.67;;;1.30;;
68234;SDS011;55052;52.056;5.296;2022-09-01T17:14:39;4.70;;;1.27;;
68234;SDS011;55052;52.056;5.296;2022-09-01T17:17:17;3.60;;;1.40;;
68234;SDS011;55052;52.056;5.296;2022-09-01T17:19:46;3.47;;;1.20;;
68234;SDS011;55052;52.056;5.296;2022-09-01T17:22:17;3.75;;;1.38;;
68234;SDS011;55052;52.056;5.296;2022-09-01T17:24:51;3.97;;;1.55;;
68234;SDS011;55052;52.056;5.296;2022-09-01T17:27:34;5.03;;;1.30;;
68234;SDS011;55052;52.056;5.296;2022-09-01T17:30:08;2.58;;;1.30;;
68234;SDS011;55052;52.056;5.296;2022-09-01T17:44:09;4.53;;;1.70;;